createdAt,value
2018-12-29T00:00:29.189Z,30.37
2018-12-29T00:02:58.038Z,23.60
2018-12-29T00:05:26.903Z,21.43
2018-12-29T00:07:55.813Z,24.37
2018-12-29T00:10:24.642Z,24.63
2018-12-29T00:12:53.511Z,28.87
2018-12-29T00:15:22.370Z,27.50
2018-12-29T00:17:51.439Z,26.33
2018-12-29T00:20:20.297Z,24.17
2018-12-29T00:22:49.157Z,26.10
2018-12-29T00:25:17.989Z,32.50
2018-12-29T00:27:46.865Z,30.67
2018-12-29T00:30:15.783Z,27.03
2018-12-29T00:32:44.730Z,25.20
2018-12-29T00:35:13.578Z,25.73
2018-12-29T00:37:42.733Z,26.47
2018-12-29T00:40:11.525Z,29.37
2018-12-29T00:42:40.405Z,28.33
2018-12-29T00:45:09.191Z,28.90
2018-12-29T00:47:38.271Z,26.13
2018-12-29T00:50:07.237Z,29.80
2018-12-29T00:52:36.053Z,30.37
2018-12-29T00:55:05.067Z,26.33
2018-12-29T00:57:33.878Z,24.03
2018-12-29T01:00:02.675Z,26.63
2018-12-29T01:02:31.553Z,27.20
2018-12-29T01:05:00.391Z,24.77
2018-12-29T01:07:29.266Z,24.83
2018-12-29T01:09:58.098Z,26.27
2018-12-29T01:12:26.985Z,24.87
2018-12-29T01:14:55.826Z,25.00
2018-12-29T01:17:24.662Z,26.60
2018-12-29T01:19:54.327Z,23.10
2018-12-29T01:22:23.168Z,26.83
2018-12-29T01:24:52.006Z,28.30
2018-12-29T01:27:21.115Z,25.33
2018-12-29T01:29:49.981Z,28.20
2018-12-29T01:32:19.083Z,28.57
2018-12-29T01:34:48.054Z,28.17
2018-12-29T01:37:16.940Z,29.50
2018-12-29T01:39:45.949Z,26.30
2018-12-29T01:42:14.980Z,27.07
2018-12-29T01:44:43.886Z,24.03
2018-12-29T01:47:12.760Z,26.77
2018-12-29T01:49:41.928Z,32.17
2018-12-29T01:52:10.991Z,26.37
2018-12-29T01:54:39.927Z,29.83
2018-12-29T01:57:08.849Z,25.47
2018-12-29T01:59:37.691Z,24.87
2018-12-29T02:02:06.730Z,28.13
2018-12-29T02:04:35.650Z,32.20
2018-12-29T02:07:04.492Z,27.33
2018-12-29T02:09:33.438Z,27.80
2018-12-29T02:12:02.362Z,27.57
2018-12-29T02:14:31.290Z,28.53
2018-12-29T02:17:00.190Z,28.97
2018-12-29T02:19:29.143Z,25.87
2018-12-29T02:21:58.194Z,26.20
2018-12-29T02:24:27.156Z,29.23
2018-12-29T02:26:56.042Z,28.77
2018-12-29T02:29:24.875Z,32.30
2018-12-29T02:31:54.243Z,31.00
2018-12-29T02:34:23.168Z,28.60
2018-12-29T02:36:52.029Z,30.10
2018-12-29T02:39:20.971Z,28.20
2018-12-29T02:41:49.949Z,29.90
2018-12-29T02:44:18.867Z,26.27
2018-12-29T02:46:47.767Z,28.37
2018-12-29T02:49:16.637Z,28.47
2018-12-29T02:51:45.566Z,29.87
2018-12-29T02:54:14.491Z,28.53
2018-12-29T02:56:43.562Z,29.03
2018-12-29T02:59:12.444Z,30.13
2018-12-29T03:01:41.470Z,26.77
2018-12-29T03:04:10.320Z,27.33
2018-12-29T03:06:39.210Z,28.93
2018-12-29T03:09:08.113Z,28.17
2018-12-29T03:11:36.929Z,26.87
2018-12-29T03:14:05.766Z,29.73
2018-12-29T03:16:34.700Z,28.37
2018-12-29T03:19:03.836Z,30.50
2018-12-29T03:21:32.733Z,29.53
2018-12-29T03:24:01.759Z,27.10
2018-12-29T03:26:30.582Z,26.77
2018-12-29T03:28:59.429Z,30.60
2018-12-29T03:31:28.250Z,26.57
2018-12-29T03:33:57.307Z,29.97
2018-12-29T03:36:26.205Z,25.67
2018-12-29T03:38:55.019Z,35.20
2018-12-29T03:41:23.955Z,27.73
2018-12-29T03:43:52.892Z,29.20
2018-12-29T03:46:22.095Z,26.27
2018-12-29T03:48:50.939Z,30.50
2018-12-29T03:51:19.806Z,27.53
2018-12-29T03:53:48.950Z,29.60
2018-12-29T03:56:17.987Z,32.37
2018-12-29T03:58:47.124Z,30.43
2018-12-29T04:01:16.029Z,30.27
2018-12-29T04:03:45.101Z,29.40
2018-12-29T04:06:14.016Z,31.87
2018-12-29T04:09:19.522Z,31.70
2018-12-29T04:11:48.370Z,33.70
2018-12-29T04:14:17.258Z,27.47
2018-12-29T04:16:46.352Z,35.07
2018-12-29T04:19:15.476Z,33.40
2018-12-29T04:21:44.435Z,33.57
2018-12-29T04:24:13.273Z,36.40
2018-12-29T04:26:42.214Z,34.33
2018-12-29T04:29:11.042Z,33.90
2018-12-29T04:31:39.861Z,29.53
2018-12-29T04:34:08.711Z,31.37
2018-12-29T04:36:37.518Z,35.40
2018-12-29T04:39:07.019Z,32.80
2018-12-29T04:41:35.974Z,32.67
2018-12-29T04:44:04.907Z,32.40
2018-12-29T04:46:33.802Z,32.90
2018-12-29T04:49:02.597Z,37.30
2018-12-29T04:51:31.582Z,37.17
2018-12-29T04:54:00.413Z,35.13
2018-12-29T04:56:29.353Z,36.67
2018-12-29T04:58:58.234Z,35.87
2018-12-29T05:01:27.041Z,35.37
2018-12-29T05:03:55.886Z,34.53
2018-12-29T05:06:24.756Z,33.27
2018-12-29T05:08:53.602Z,33.67
2018-12-29T05:11:22.489Z,32.70
2018-12-29T05:13:51.511Z,34.20
2018-12-29T05:16:20.449Z,35.60
2018-12-29T05:18:49.773Z,36.10
2018-12-29T05:21:18.766Z,38.57
2018-12-29T05:23:47.593Z,38.83
2018-12-29T05:26:16.501Z,43.43
2018-12-29T05:28:45.391Z,39.57
2018-12-29T05:31:14.244Z,36.60
2018-12-29T05:33:43.133Z,38.03
2018-12-29T05:36:12.125Z,38.20
2018-12-29T05:38:40.950Z,35.30
2018-12-29T05:41:09.933Z,34.60
2018-12-29T05:43:38.827Z,32.07
2018-12-29T05:46:07.648Z,32.87
2018-12-29T05:48:36.470Z,38.03
2018-12-29T05:51:05.402Z,37.67
2018-12-29T05:53:34.236Z,38.27
2018-12-29T05:56:03.286Z,38.40
2018-12-29T05:58:32.105Z,36.80
2018-12-29T06:01:00.998Z,37.90
2018-12-29T06:03:29.941Z,35.87
2018-12-29T06:05:58.768Z,36.77
2018-12-29T06:08:27.674Z,35.80
2018-12-29T06:10:56.598Z,39.17
2018-12-29T06:13:25.556Z,35.93
2018-12-29T06:15:54.430Z,36.17
2018-12-29T06:18:23.272Z,37.20
2018-12-29T06:20:52.336Z,40.70
2018-12-29T06:23:21.166Z,38.70
2018-12-29T06:25:50.092Z,41.77
2018-12-29T06:28:19.237Z,38.03
2018-12-29T06:30:48.102Z,37.40
2018-12-29T06:33:17.015Z,36.23
2018-12-29T06:35:45.886Z,40.90
2018-12-29T06:38:14.841Z,39.90
2018-12-29T06:40:44.096Z,42.07
2018-12-29T06:43:13.001Z,36.70
2018-12-29T06:45:41.991Z,37.07
2018-12-29T06:48:10.930Z,41.17
2018-12-29T06:50:39.834Z,35.53
2018-12-29T06:53:08.826Z,38.77
2018-12-29T06:55:37.657Z,38.90
2018-12-29T06:58:06.535Z,37.33
2018-12-29T07:00:35.401Z,35.73
2018-12-29T07:03:04.328Z,40.63
2018-12-29T07:05:33.251Z,39.33
2018-12-29T07:08:02.305Z,38.77
2018-12-29T07:10:31.269Z,34.43
2018-12-29T07:13:00.234Z,39.57
2018-12-29T07:15:29.470Z,39.87
2018-12-29T07:17:58.370Z,35.57
2018-12-29T07:20:27.360Z,37.33
2018-12-29T07:22:56.182Z,36.07
2018-12-29T07:25:25.387Z,38.43
2018-12-29T07:27:54.285Z,39.60
2018-12-29T07:30:23.112Z,38.37
2018-12-29T07:32:51.947Z,38.37
2018-12-29T07:35:20.801Z,38.70
2018-12-29T07:37:49.755Z,39.80
2018-12-29T07:40:18.546Z,37.43
2018-12-29T07:42:47.415Z,38.37
2018-12-29T07:45:16.318Z,37.07
2018-12-29T07:47:45.430Z,42.83
2018-12-29T07:50:14.365Z,39.23
2018-12-29T07:52:43.231Z,38.10
2018-12-29T07:55:12.388Z,39.13
2018-12-29T07:57:41.249Z,44.87
2018-12-29T08:00:10.188Z,44.27
2018-12-29T08:02:39.024Z,35.07
2018-12-29T08:05:08.008Z,40.70
2018-12-29T08:07:37.194Z,40.60
2018-12-29T08:10:06.466Z,42.80
2018-12-29T08:12:35.474Z,48.17
2018-12-29T08:15:04.605Z,47.37
2018-12-29T08:17:33.623Z,45.17
2018-12-29T08:20:02.638Z,42.40
2018-12-29T08:22:31.560Z,45.47
2018-12-29T08:25:00.682Z,49.33
2018-12-29T08:27:29.513Z,40.87
2018-12-29T08:29:58.476Z,35.77
2018-12-29T08:32:27.443Z,40.77
2018-12-29T08:34:56.483Z,36.07
2018-12-29T08:37:25.409Z,35.30
2018-12-29T08:39:54.286Z,39.00
2018-12-29T08:42:23.135Z,42.87
2018-12-29T08:44:52.297Z,37.23
2018-12-29T08:47:21.643Z,47.47
2018-12-29T08:49:50.606Z,39.30
2018-12-29T08:52:19.467Z,43.67
2018-12-29T08:54:48.476Z,39.87
2018-12-29T08:57:17.575Z,38.77
2018-12-29T08:59:46.434Z,36.50
2018-12-29T09:02:15.517Z,44.77
2018-12-29T09:04:44.643Z,43.33
2018-12-29T09:07:13.518Z,41.47
2018-12-29T09:09:42.466Z,35.37
2018-12-29T09:12:11.399Z,37.80
2018-12-29T09:14:40.679Z,42.40
2018-12-29T09:17:12.254Z,42.17
2018-12-29T09:19:40.655Z,38.83
2018-12-29T09:22:09.501Z,39.67
2018-12-29T09:24:38.560Z,37.47
2018-12-29T09:27:07.554Z,34.57
2018-12-29T09:29:37.129Z,36.83
2018-12-29T09:32:06.051Z,35.20
2018-12-29T09:34:35.214Z,40.73
2018-12-29T09:37:04.156Z,31.67
2018-12-29T09:39:33.048Z,36.80
2018-12-29T09:42:02.010Z,33.20
2018-12-29T09:44:31.019Z,39.07
2018-12-29T09:46:59.959Z,32.43
2018-12-29T09:49:28.969Z,30.60
2018-12-29T09:51:57.878Z,33.37
2018-12-29T09:54:26.842Z,34.67
2018-12-29T09:56:55.865Z,30.80
2018-12-29T09:59:24.794Z,33.07
2018-12-29T10:01:53.662Z,32.50
2018-12-29T10:04:22.656Z,42.53
2018-12-29T10:06:51.502Z,32.93
2018-12-29T10:09:20.484Z,29.27
2018-12-29T10:11:49.519Z,33.40
2018-12-29T10:14:18.550Z,29.67
2018-12-29T10:16:47.442Z,30.43
2018-12-29T10:19:17.290Z,32.00
2018-12-29T10:21:46.243Z,30.27
2018-12-29T10:24:15.120Z,32.97
2018-12-29T10:26:44.019Z,30.73
2018-12-29T10:29:13.162Z,31.63
2018-12-29T10:31:42.038Z,29.80
2018-12-29T10:34:10.854Z,28.60
2018-12-29T10:36:39.710Z,32.80
2018-12-29T10:39:08.574Z,37.20
2018-12-29T10:41:37.379Z,33.80
2018-12-29T10:44:06.287Z,35.10
2018-12-29T10:46:35.131Z,40.67
2018-12-29T10:49:04.062Z,35.40
2018-12-29T10:51:32.969Z,32.20
2018-12-29T10:54:02.205Z,34.03
2018-12-29T10:56:31.178Z,30.57
2018-12-29T10:59:00.113Z,27.30
2018-12-29T11:01:29.035Z,25.57
2018-12-29T11:03:57.882Z,25.67
2018-12-29T11:06:26.825Z,24.77
2018-12-29T11:08:55.777Z,24.27
2018-12-29T11:11:24.732Z,26.90
2018-12-29T11:13:53.560Z,24.40
2018-12-29T11:16:26.138Z,26.03
2018-12-29T11:18:55.059Z,23.27
2018-12-29T11:21:23.882Z,23.63
2018-12-29T11:23:52.791Z,22.07
2018-12-29T11:26:21.665Z,22.93
2018-12-29T11:28:50.583Z,28.07
2018-12-29T11:31:19.607Z,25.57
2018-12-29T11:33:48.513Z,23.23
2018-12-29T11:36:17.334Z,28.00
2018-12-29T11:38:46.159Z,23.50
2018-12-29T11:41:14.982Z,24.90
2018-12-29T11:43:44.073Z,23.93
2018-12-29T11:46:13.021Z,26.97
2018-12-29T11:48:41.979Z,26.13
2018-12-29T11:51:11.073Z,26.23
2018-12-29T11:53:39.983Z,24.87
2018-12-29T11:56:09.208Z,27.83
2018-12-29T11:58:38.093Z,26.30
2018-12-29T12:01:07.017Z,25.90
2018-12-29T12:03:36.278Z,26.50
2018-12-29T12:06:05.148Z,21.60
2018-12-29T12:08:34.045Z,22.97
2018-12-29T12:11:02.993Z,22.93
2018-12-29T12:13:31.874Z,20.47
2018-12-29T12:16:01.382Z,22.23
2018-12-29T12:18:30.469Z,24.50
2018-12-29T12:20:59.433Z,24.37
2018-12-29T12:23:28.358Z,22.93
2018-12-29T12:25:57.271Z,24.67
2018-12-29T12:28:26.149Z,21.60
2018-12-29T12:30:55.157Z,21.37
2018-12-29T12:33:24.473Z,23.70
2018-12-29T12:35:53.458Z,23.77
2018-12-29T12:38:22.691Z,25.90
2018-12-29T12:40:51.502Z,26.90
2018-12-29T12:43:20.702Z,23.40
2018-12-29T12:45:49.955Z,22.43
2018-12-29T12:48:18.948Z,22.93
2018-12-29T12:50:48.170Z,23.40
2018-12-29T12:53:17.055Z,23.87
2018-12-29T12:55:46.682Z,23.47
2018-12-29T12:58:15.875Z,23.60
2018-12-29T13:00:45.107Z,27.77
2018-12-29T13:03:14.331Z,26.60
2018-12-29T13:05:43.547Z,23.53
2018-12-29T13:08:12.893Z,24.67
2018-12-29T13:10:41.894Z,21.97
2018-12-29T13:13:10.927Z,24.20
2018-12-29T13:15:40.138Z,24.00
2018-12-29T13:18:13.009Z,22.60
2018-12-29T13:20:39.718Z,24.63
2018-12-29T13:23:08.546Z,23.77
2018-12-29T13:25:37.411Z,21.53
2018-12-29T13:28:06.340Z,24.27
2018-12-29T13:30:35.574Z,21.57
2018-12-29T13:33:04.381Z,20.57
2018-12-29T13:35:33.267Z,21.83
2018-12-29T13:38:02.090Z,21.30
2018-12-29T13:40:31.036Z,21.13
2018-12-29T13:43:00.459Z,23.60
2018-12-29T13:45:29.402Z,19.43
2018-12-29T13:47:58.333Z,20.53
2018-12-29T13:50:27.272Z,17.10
2018-12-29T13:52:56.202Z,24.13
2018-12-29T13:55:25.352Z,21.17
2018-12-29T13:57:54.413Z,16.50
2018-12-29T14:00:23.493Z,19.97
2018-12-29T14:02:52.542Z,20.67
2018-12-29T14:05:21.537Z,18.10
2018-12-29T14:07:50.465Z,16.47
2018-12-29T14:10:19.295Z,16.73
2018-12-29T14:12:48.274Z,18.30
2018-12-29T14:15:17.244Z,17.03
2018-12-29T14:17:46.458Z,18.03
2018-12-29T14:20:15.378Z,17.33
2018-12-29T14:22:44.316Z,14.40
2018-12-29T14:25:13.334Z,13.87
2018-12-29T14:27:42.300Z,12.90
2018-12-29T14:30:11.578Z,13.27
2018-12-29T14:32:40.605Z,11.97
2018-12-29T14:35:09.610Z,13.90
2018-12-29T14:37:38.562Z,13.60
2018-12-29T14:40:07.615Z,13.07
2018-12-29T14:42:36.590Z,11.70
2018-12-29T14:45:05.685Z,12.57
2018-12-29T14:47:34.554Z,12.80
2018-12-29T14:50:03.545Z,11.47
2018-12-29T14:52:32.613Z,14.07
2018-12-29T14:55:01.577Z,12.90
2018-12-29T14:57:30.441Z,11.60
2018-12-29T14:59:59.429Z,11.40
2018-12-29T15:02:28.421Z,11.07
2018-12-29T15:04:57.322Z,11.07
2018-12-29T15:07:26.165Z,10.90
2018-12-29T15:09:55.131Z,11.47
2018-12-29T15:12:24.394Z,9.90
2018-12-29T15:14:53.756Z,12.00
2018-12-29T15:17:22.634Z,11.53
2018-12-29T15:19:51.629Z,11.43
2018-12-29T15:22:20.674Z,10.60
2018-12-29T15:24:49.938Z,13.57
2018-12-29T15:27:18.840Z,12.40
2018-12-29T15:29:47.802Z,13.10
2018-12-29T15:32:17.073Z,15.13
2018-12-29T15:34:46.092Z,14.03
2018-12-29T15:37:15.055Z,16.07
2018-12-29T15:39:44.106Z,14.80
2018-12-29T15:42:13.270Z,16.33
2018-12-29T15:44:42.538Z,16.00
2018-12-29T15:47:11.495Z,14.47
2018-12-29T15:49:40.649Z,13.53
2018-12-29T15:52:09.637Z,15.43
2018-12-29T15:54:39.200Z,13.33
2018-12-29T15:57:08.167Z,16.13
2018-12-29T15:59:37.197Z,14.20
2018-12-29T16:02:06.126Z,20.23
2018-12-29T16:04:35.149Z,17.07
2018-12-29T16:07:04.214Z,18.60
2018-12-29T16:09:33.523Z,18.03
2018-12-29T16:12:02.812Z,19.10
2018-12-29T16:14:35.525Z,18.90
2018-12-29T16:20:53.251Z,16.47
2018-12-29T16:23:19.839Z,16.10
2018-12-29T16:25:49.548Z,15.57
2018-12-29T16:28:18.793Z,23.87
2018-12-29T16:30:48.145Z,17.90
2018-12-29T16:33:17.353Z,16.90
2018-12-29T16:35:46.391Z,17.47
2018-12-29T16:38:16.182Z,17.93
2018-12-29T16:40:45.580Z,19.43
2018-12-29T16:43:15.069Z,20.67
2018-12-29T16:45:44.320Z,27.87
2018-12-29T16:48:13.856Z,19.00
2018-12-29T16:50:42.966Z,19.53
2018-12-29T16:53:12.695Z,20.77
2018-12-29T16:55:42.084Z,20.73
2018-12-29T16:58:11.471Z,21.30
2018-12-29T17:00:40.775Z,18.33
2018-12-29T17:03:10.318Z,17.93
2018-12-29T17:05:39.623Z,22.33
2018-12-29T17:08:09.007Z,20.50
2018-12-29T17:10:38.430Z,20.30
2018-12-29T17:13:07.796Z,18.77
2018-12-29T17:16:05.678Z,20.03
2018-12-29T17:18:53.348Z,18.40
2018-12-29T17:21:35.828Z,21.87
2018-12-29T17:24:31.072Z,20.17
2018-12-29T17:27:11.056Z,21.70
2018-12-29T17:30:33.321Z,19.27
2018-12-29T17:33:19.565Z,20.13
2018-12-29T17:36:09.469Z,25.27
2018-12-29T17:38:56.185Z,20.63
2018-12-29T17:41:28.098Z,21.60
2018-12-29T17:43:57.313Z,21.40
2018-12-29T17:46:27.284Z,19.03
2018-12-29T17:48:56.583Z,14.80
2018-12-29T17:51:26.145Z,17.60
2018-12-29T17:53:55.603Z,11.03
2018-12-29T17:56:48.000Z,14.13
2018-12-29T17:59:18.763Z,10.27
2018-12-29T18:02:04.044Z,12.93
2018-12-29T18:04:55.902Z,7.63
2018-12-29T18:08:12.134Z,6.60
2018-12-29T18:10:57.342Z,5.00
2018-12-29T18:13:41.684Z,4.33
2018-12-29T18:16:18.911Z,5.13
2018-12-29T18:18:50.074Z,4.47
2018-12-29T18:21:26.239Z,5.67
2018-12-29T18:23:57.276Z,4.40
2018-12-29T18:26:50.467Z,5.57
2018-12-29T18:32:40.096Z,4.93
2018-12-29T18:35:12.818Z,6.87
2018-12-29T18:37:42.573Z,5.67
2018-12-29T18:41:38.013Z,6.07
2018-12-29T18:45:15.016Z,6.73
2018-12-29T18:59:46.058Z,8.77
2018-12-29T19:02:53.770Z,12.17
2018-12-29T19:17:17.469Z,16.43
2018-12-29T19:19:54.347Z,14.93
2018-12-29T19:22:29.645Z,14.73
2018-12-29T19:25:00.713Z,16.50
2018-12-29T19:28:00.319Z,14.23
2018-12-29T19:30:31.444Z,16.50
2018-12-29T19:33:24.821Z,15.40
2018-12-29T19:36:04.760Z,17.47
2018-12-29T19:38:34.621Z,19.63
2018-12-29T19:41:04.487Z,18.37
2018-12-29T19:43:52.383Z,16.87
2018-12-29T19:46:22.178Z,27.27
2018-12-29T19:48:55.373Z,17.17
2018-12-29T19:51:25.312Z,19.83
2018-12-29T19:53:55.251Z,19.20
2018-12-29T19:56:24.603Z,21.17
2018-12-29T19:59:17.723Z,21.10
2018-12-29T20:01:44.194Z,22.27
2018-12-29T20:04:21.753Z,24.43
2018-12-29T20:06:51.872Z,23.03
2018-12-29T20:09:21.515Z,24.13
2018-12-29T20:12:02.387Z,23.73
2018-12-29T20:14:30.117Z,19.60
2018-12-29T20:17:09.657Z,29.73
2018-12-29T20:19:39.956Z,26.47
2018-12-29T20:22:15.586Z,24.87
2018-12-29T20:24:46.777Z,23.97
2018-12-29T20:27:16.897Z,23.77
2018-12-29T20:29:52.627Z,27.63
2018-12-29T20:32:29.171Z,25.00
2018-12-29T20:35:33.924Z,28.20
2018-12-29T20:38:11.344Z,30.27
2018-12-29T20:40:43.111Z,24.33
2018-12-29T20:43:12.816Z,32.17
2018-12-29T20:45:49.389Z,25.27
2018-12-29T20:48:23.160Z,30.03
2018-12-29T20:51:19.857Z,30.13
2018-12-29T20:53:51.696Z,34.03
2018-12-29T21:00:45.420Z,30.13
2018-12-29T21:03:46.158Z,30.83
2018-12-29T21:09:20.498Z,34.13
2018-12-29T21:11:54.408Z,37.00
2018-12-29T21:14:48.780Z,36.17
2018-12-29T21:23:50.413Z,29.50
2018-12-29T21:27:21.135Z,30.93
2018-12-29T21:36:02.260Z,25.60
2018-12-29T21:39:08.383Z,32.93
2018-12-29T21:48:35.168Z,31.07
2018-12-29T21:51:07.783Z,26.90
2018-12-29T21:53:48.146Z,21.57
2018-12-29T21:56:40.184Z,21.17
2018-12-29T22:02:23.271Z,25.87
2018-12-29T22:08:38.205Z,24.53
2018-12-29T22:11:38.745Z,22.37
2018-12-29T22:14:50.777Z,20.07
2018-12-29T22:17:19.761Z,20.40
2018-12-29T22:19:48.677Z,20.40
2018-12-29T22:22:17.638Z,25.67
2018-12-29T22:24:46.979Z,24.07
2018-12-29T22:27:16.079Z,24.27
2018-12-29T22:29:45.100Z,24.23
2018-12-29T22:32:14.087Z,18.70
2018-12-29T22:34:43.150Z,19.53
2018-12-29T22:37:12.545Z,22.03
2018-12-29T22:39:41.528Z,21.63
2018-12-29T22:42:10.790Z,23.00
2018-12-29T22:44:40.117Z,24.27
2018-12-29T22:47:09.142Z,24.10
2018-12-29T22:49:38.295Z,17.73
2018-12-29T22:52:07.201Z,15.33
2018-12-29T22:54:36.394Z,18.90
2018-12-29T22:57:05.797Z,20.57
2018-12-29T22:59:34.903Z,19.33
2018-12-29T23:02:04.225Z,22.47
2018-12-29T23:04:33.298Z,19.60
2018-12-29T23:07:02.382Z,19.73
2018-12-29T23:09:31.378Z,16.00
2018-12-29T23:12:00.398Z,16.10
2018-12-29T23:14:29.355Z,19.33
2018-12-29T23:16:58.810Z,18.77
2018-12-29T23:19:27.799Z,20.37
2018-12-29T23:21:57.028Z,11.87
2018-12-29T23:24:26.050Z,15.43
2018-12-29T23:26:55.162Z,11.60
2018-12-29T23:29:24.114Z,8.73
2018-12-29T23:31:53.221Z,17.03
2018-12-29T23:34:22.350Z,14.13
2018-12-29T23:36:51.725Z,11.77
2018-12-29T23:39:20.913Z,14.77
2018-12-29T23:41:50.179Z,11.77
2018-12-29T23:44:19.290Z,19.27
2018-12-29T23:46:48.374Z,13.93
2018-12-29T23:49:17.302Z,9.80
2018-12-29T23:51:46.603Z,13.67
2018-12-29T23:54:15.450Z,12.77
2018-12-29T23:56:44.553Z,21.20
2018-12-29T23:59:13.472Z,15.20
